Time;durP1;ratioP1;P1;durP2;ratioP2;P2;SDS_P1;SDS_P2;PMS_P1;PMS_P2;Temp;Humidity;BMP_temperature;BMP_pressure;BME280_temperature;BME280_humidity;BME280_pressure;Samples;Min_cycle;Max_cycle;Signal;HPM_P1;HPM_P2
2021/11/12 00:14:54;;;;;;;49.05;33.00;;;11.40;79.40;;;;;;4974040;28;94563;-75
2021/11/12 00:17:24;;;;;;;52.15;34.13;;;11.40;79.40;;;;;;4977956;28;92415;-75
2021/11/12 00:19:51;;;;;;;54.47;34.10;;;11.40;79.50;;;;;;4976238;28;95433;-75
2021/11/12 00:22:20;;;;;;;43.92;31.65;;;11.40;79.40;;;;;;4959867;28;96580;-76
2021/11/12 00:24:47;;;;;;;52.05;34.17;;;11.40;79.40;;;;;;4977377;28;92384;-75
2021/11/12 00:27:15;;;;;;;43.28;31.75;;;11.50;79.30;;;;;;4977305;28;92537;-75
2021/11/12 00:29:50;;;;;;;49.78;34.72;;;11.50;79.10;;;;;;4960316;28;92934;-76
2021/11/12 00:32:28;;;;;;;45.95;32.97;;;11.50;79.60;;;;;;4976475;28;94048;-75
2021/11/12 00:40:14;;;;;;;47.00;31.92;;;11.40;79.10;;;;;;4996111;28;92470;-76
2021/11/12 00:45:57;;;;;;;45.47;32.90;;;11.40;78.90;;;;;;4952241;28;95532;-75
2021/11/12 00:48:27;;;;;;;46.35;33.83;;;11.40;79.20;;;;;;4976092;28;92536;-75
2021/11/12 00:51:08;;;;;;;50.13;33.03;;;11.40;79.40;;;;;;4976848;28;93057;-75
2021/11/12 00:56:25;;;;;;;49.60;34.17;;;11.40;79.40;;;;;;4977461;28;93395;-75
2021/11/12 00:58:56;;;;;;;49.45;33.78;;;11.40;79.20;;;;;;4976809;28;92560;-75
2021/11/12 01:01:25;;;;;;;51.35;34.35;;;11.40;79.20;;;;;;4976021;28;92981;-75
2021/11/12 01:03:54;;;;;;;48.10;32.67;;;11.40;79.10;;;;;;4976896;28;92952;-75
2021/11/12 01:06:22;;;;;;;48.70;35.03;;;11.40;79.30;;;;;;4977045;28;92416;-75
2021/11/12 01:08:50;;;;;;;49.60;33.80;;;11.40;79.20;;;;;;4975295;28;92519;-75
2021/11/12 01:11:20;;;;;;;50.80;34.60;;;11.40;79.40;;;;;;4957994;28;96564;-75
2021/11/12 01:13:49;;;;;;;49.05;34.83;;;11.40;79.20;;;;;;4976896;28;95326;-75
2021/11/12 01:16:18;;;;;;;43.20;31.98;;;11.40;79.40;;;;;;4976783;28;92850;-75
2021/11/12 01:18:45;;;;;;;47.03;33.03;;;11.40;79.10;;;;;;4976827;28;92413;-75
2021/11/12 01:21:14;;;;;;;48.50;33.17;;;11.40;79.20;;;;;;4975292;28;93819;-76
2021/11/12 01:23:45;;;;;;;50.63;32.90;;;11.40;79.30;;;;;;4975066;28;92952;-75
2021/11/12 01:26:13;;;;;;;47.60;32.22;;;11.40;79.10;;;;;;4976751;28;92458;-75
2021/11/12 01:28:41;;;;;;;44.65;32.80;;;11.40;79.00;;;;;;4975026;28;92019;-75
2021/11/12 01:31:10;;;;;;;51.20;33.35;;;11.50;78.90;;;;;;4974786;28;94206;-75
2021/11/12 01:33:39;;;;;;;50.65;33.83;;;11.40;78.90;;;;;;4975284;28;93149;-75
2021/11/12 01:36:25;;;;;;;45.97;32.92;;;11.40;78.90;;;;;;4973590;28;94834;-75
2021/11/12 01:38:54;;;;;;;51.22;34.28;;;11.40;79.40;;;;;;4976779;28;92449;-75
2021/11/12 01:41:21;;;;;;;46.00;31.65;;;11.40;79.20;;;;;;4976299;28;93132;-76
2021/11/12 01:43:56;;;;;;;52.17;33.35;;;11.30;79.20;;;;;;4975240;28;113544;-75
2021/11/12 01:46:36;;;;;;;49.33;32.30;;;11.40;79.20;;;;;;4976443;28;92435;-75
2021/11/12 01:49:13;;;;;;;47.47;34.47;;;11.30;79.20;;;;;;4974693;28;93310;-75
2021/11/12 01:51:45;;;;;;;52.75;33.00;;;11.30;79.30;;;;;;4976370;28;92989;-75
2021/11/12 01:59:20;;;;;;;50.15;33.03;;;11.30;79.30;;;;;;4976119;28;92394;-75
2021/11/12 02:01:50;;;;;;;47.97;31.80;;;11.30;79.20;;;;;;4974641;28;95594;-75
2021/11/12 02:04:21;;;;;;;49.03;32.50;;;11.30;79.30;;;;;;4974277;28;98157;-75
2021/11/12 02:06:49;;;;;;;46.85;33.20;;;11.30;79.10;;;;;;4976086;28;93067;-75
2021/11/12 02:09:19;;;;;;;45.55;33.40;;;11.30;79.30;;;;;;4975906;28;92549;-75
2021/11/12 02:11:50;;;;;;;44.53;31.38;;;11.30;79.20;;;;;;4976069;28;92953;-75
2021/11/12 02:14:19;;;;;;;44.28;31.13;;;11.30;79.20;;;;;;4975958;28;92769;-75
2021/11/12 02:17:19;;;;;;;47.83;32.90;;;11.30;79.10;;;;;;4974623;28;92460;-75
2021/11/12 02:19:53;;;;;;;46.17;31.40;;;11.40;79.00;;;;;;4974639;28;96446;-75
2021/11/12 02:22:22;;;;;;;49.80;31.92;;;11.30;79.20;;;;;;4974047;28;94121;-75
2021/11/12 02:24:53;;;;;;;44.22;32.28;;;11.30;79.10;;;;;;4974511;28;92924;-75
2021/11/12 02:27:26;;;;;;;48.35;32.58;;;11.30;79.20;;;;;;4973280;28;95003;-75
2021/11/12 02:29:55;;;;;;;49.83;33.85;;;11.30;79.30;;;;;;4974482;28;93076;-75
2021/11/12 02:32:28;;;;;;;46.10;32.85;;;11.30;79.30;;;;;;4975213;28;92934;-75
2021/11/12 02:35:02;;;;;;;45.10;30.95;;;11.40;79.40;;;;;;4974328;28;94317;-75
2021/11/12 02:37:31;;;;;;;44.40;32.47;;;11.30;79.30;;;;;;4974404;28;92581;-76
2021/11/12 02:39:58;;;;;;;49.28;34.67;;;11.30;79.50;;;;;;4974262;28;94814;-75
2021/11/12 02:42:26;;;;;;;51.63;34.28;;;11.30;79.60;;;;;;4974085;28;94039;-75
2021/11/12 02:44:53;;;;;;;47.90;32.20;;;11.30;79.60;;;;;;4975547;28;92087;-75
2021/11/12 02:47:21;;;;;;;45.50;32.05;;;11.30;79.60;;;;;;4974126;28;92471;-75
2021/11/12 02:49:48;;;;;;;49.83;32.42;;;11.30;79.50;;;;;;4975452;28;92571;-75
2021/11/12 02:52:18;;;;;;;44.67;31.42;;;11.30;79.80;;;;;;4973922;28;95330;-75
2021/11/12 02:54:46;;;;;;;44.80;30.17;;;11.30;79.70;;;;;;4974949;28;94097;-75
2021/11/12 02:57:14;;;;;;;45.95;31.90;;;11.20;80.00;;;;;;4975003;28;92507;-75
2021/11/12 02:59:40;;;;;;;48.58;32.38;;;11.20;79.80;;;;;;4975250;28;92396;-75
2021/11/12 03:02:08;;;;;;;46.45;31.85;;;11.30;80.00;;;;;;4974730;28;93062;-75
2021/11/12 03:04:35;;;;;;;51.28;33.53;;;11.30;79.80;;;;;;4975199;28;92845;-75
2021/11/12 03:07:03;;;;;;;51.03;33.60;;;11.30;79.60;;;;;;4973712;28;94026;-75
2021/11/12 03:09:32;;;;;;;51.00;32.75;;;11.20;79.90;;;;;;4975620;28;91730;-75
2021/11/12 03:12:02;;;;;;;53.47;33.13;;;11.30;79.80;;;;;;4973758;28;93084;-75
2021/11/12 03:14:29;;;;;;;53.08;35.42;;;11.30;79.80;;;;;;4973708;28;92900;-75
2021/11/12 03:16:57;;;;;;;46.92;31.63;;;11.30;79.60;;;;;;4973682;28;94790;-75
2021/11/12 03:19:27;;;;;;;47.65;33.05;;;11.30;79.50;;;;;;4974897;28;92820;-75
2021/11/12 03:22:01;;;;;;;49.92;33.90;;;11.30;79.60;;;;;;4974824;28;94233;-75
2021/11/12 03:24:43;;;;;;;52.25;33.35;;;11.30;79.60;;;;;;4974712;28;94813;-75
2021/11/12 03:27:19;;;;;;;46.83;32.60;;;11.30;79.60;;;;;;4974959;28;92420;-75
2021/11/12 03:59:54;;;;;;;52.88;33.65;;;11.00;80.30;;;;;;4976664;28;92484;-75
2021/11/12 04:18:52;;;;;;;53.60;33.17;;;10.90;80.40;;;;;;4977607;28;93004;-75
2021/11/12 05:43:35;;;;;;;52.08;32.70;;;10.50;82.00;;;;;;4976253;28;96031;-75
2021/11/12 05:44:02;;;;;;;47.97;30.70;;;10.50;81.90;;;;;;4974948;28;95688;-75
2021/11/12 05:50:05;;;;;;;52.55;32.88;;;10.50;82.00;;;;;;4915570;28;92684;-75
2021/11/12 05:55:19;;;;;;;55.53;33.15;;;10.60;82.30;;;;;;4964772;28;93075;-75
2021/11/12 05:57:46;;;;;;;55.58;33.85;;;10.60;81.80;;;;;;4974128;28;98614;-75
2021/11/12 06:00:16;;;;;;;50.22;32.13;;;10.70;81.60;;;;;;4957372;28;94915;-75
2021/11/12 06:02:44;;;;;;;62.17;41.40;;;10.70;81.30;;;;;;4976192;28;92416;-75
2021/11/12 06:05:12;;;;;;;88.15;57.28;;;10.70;81.30;;;;;;4975468;28;93152;-75
2021/11/12 06:07:39;;;;;;;59.10;38.15;;;10.70;81.50;;;;;;4975747;28;92696;-75
2021/11/12 06:10:07;;;;;;;64.15;42.33;;;10.70;81.40;;;;;;4974700;28;92389;-75
2021/11/12 06:12:34;;;;;;;56.97;36.95;;;10.70;81.60;;;;;;4975733;28;92436;-75
2021/11/12 06:15:01;;;;;;;56.72;37.08;;;10.70;81.20;;;;;;4975677;28;92460;-75
2021/11/12 06:17:28;;;;;;;55.20;35.42;;;10.70;81.50;;;;;;4974786;28;94226;-76
2021/11/12 06:19:55;;;;;;;57.40;36.58;;;10.70;81.60;;;;;;4974634;28;92900;-75
2021/11/12 06:22:22;;;;;;;55.28;37.78;;;10.70;81.40;;;;;;4975238;28;111680;-76
2021/11/12 06:24:49;;;;;;;53.22;33.22;;;10.80;81.60;;;;;;4973976;28;95361;-76
2021/11/12 06:27:16;;;;;;;53.92;34.65;;;10.70;81.70;;;;;;4975696;28;94183;-75
2021/11/12 06:29:43;;;;;;;56.15;32.28;;;10.70;81.70;;;;;;4974466;28;93015;-76
2021/11/12 06:32:11;;;;;;;51.83;31.67;;;10.60;81.90;;;;;;4974498;28;92371;-76
2021/11/12 06:34:39;;;;;;;51.20;29.13;;;10.60;82.40;;;;;;4975157;28;94639;-76
2021/11/12 06:37:06;;;;;;;56.65;33.92;;;10.60;82.00;;;;;;4974023;28;96424;-76
2021/11/12 06:39:33;;;;;;;51.63;32.45;;;10.70;82.20;;;;;;4974148;28;92506;-75
2021/11/12 06:42:09;;;;;;;56.60;34.55;;;10.70;82.00;;;;;;4975570;28;91685;-76
2021/11/12 06:50:16;;;;;;;51.30;30.00;;;10.70;81.50;;;;;;4974396;28;94822;-76
2021/11/12 06:52:46;;;;;;;50.95;29.17;;;10.70;81.40;;;;;;4975346;28;92322;-76
2021/11/12 06:55:14;;;;;;;52.45;30.05;;;10.80;81.20;;;;;;4975089;28;93092;-76
2021/11/12 06:57:43;;;;;;;55.53;32.15;;;10.80;81.40;;;;;;4973205;28;113845;-75
2021/11/12 07:00:15;;;;;;;96.85;46.00;;;10.80;81.30;;;;;;4975272;28;92345;-76
2021/11/12 07:02:43;;;;;;;74.07;56.25;;;10.80;81.00;;;;;;4973826;28;92413;-76
2021/11/12 07:05:11;;;;;;;62.08;42.05;;;10.80;81.60;;;;;;4957816;28;93282;-75
2021/11/12 07:07:38;;;;;;;60.65;37.58;;;10.80;81.20;;;;;;4975237;28;92896;-75
2021/11/12 07:10:07;;;;;;;63.50;44.92;;;10.80;81.20;;;;;;4975219;28;92480;-76
2021/11/12 07:12:34;;;;;;;66.57;40.45;;;10.90;80.90;;;;;;4975168;28;92350;-76
2021/11/12 07:15:02;;;;;;;59.22;38.70;;;10.90;81.20;;;;;;4971354;28;112342;-76
2021/11/12 07:17:29;;;;;;;55.25;36.75;;;10.90;81.10;;;;;;4974960;28;95183;-76
2021/11/12 07:19:55;;;;;;;47.47;32.08;;;10.90;81.10;;;;;;4974821;28;92546;-76
2021/11/12 07:22:22;;;;;;;51.85;33.10;;;11.00;81.70;;;;;;4974853;28;92672;-76
2021/11/12 07:24:49;;;;;;;56.65;34.42;;;11.00;80.60;;;;;;4974636;28;94994;-76
2021/11/12 07:27:16;;;;;;;55.13;33.83;;;11.00;80.80;;;;;;4978268;28;92824;-76
2021/11/12 07:30:06;;;;;;;51.97;35.03;;;11.00;80.70;;;;;;4978449;28;93045;-76
2021/11/12 07:32:33;;;;;;;57.35;34.75;;;11.00;80.70;;;;;;4978619;28;91642;-76
2021/11/12 07:35:01;;;;;;;56.58;37.67;;;11.00;80.30;;;;;;4977930;28;93092;-76
2021/11/12 07:37:30;;;;;;;63.42;40.40;;;11.10;80.30;;;;;;4978103;28;92996;-76
2021/11/12 07:39:58;;;;;;;56.55;38.78;;;11.00;80.40;;;;;;4976161;28;106359;-76
2021/11/12 07:42:34;;;;;;;54.80;37.42;;;11.00;80.30;;;;;;4977018;28;92849;-76
2021/11/12 07:45:07;;;;;;;53.97;34.55;;;11.10;80.60;;;;;;4977776;28;93055;-76
2021/11/12 07:47:35;;;;;;;61.78;47.75;;;11.00;80.10;;;;;;4976533;28;92917;-76
2021/11/12 07:50:07;;;;;;;56.08;42.15;;;11.00;80.50;;;;;;4977715;28;92446;-76
2021/11/12 07:52:36;;;;;;;50.40;32.70;;;11.10;80.70;;;;;;4977289;28;92553;-76
2021/11/12 07:55:04;;;;;;;54.72;34.47;;;11.10;80.30;;;;;;4976242;28;95685;-76
2021/11/12 07:57:31;;;;;;;48.65;31.92;;;11.00;80.70;;;;;;4977045;28;92914;-76
2021/11/12 07:59:58;;;;;;;53.72;33.50;;;11.00;80.30;;;;;;4977424;28;96081;-76
2021/11/12 08:02:26;;;;;;;51.60;32.10;;;11.10;80.50;;;;;;4976781;28;92913;-76
2021/11/12 08:05:00;;;;;;;53.50;32.30;;;11.10;80.20;;;;;;4976414;28;98194;-76
2021/11/12 08:07:30;;;;;;;51.53;32.38;;;11.10;79.80;;;;;;4976448;28;96385;-76
2021/11/12 08:09:59;;;;;;;54.95;34.17;;;11.10;80.20;;;;;;4976256;28;92372;-76
2021/11/12 08:12:32;;;;;;;50.50;31.58;;;11.10;80.30;;;;;;4977835;28;92465;-76
2021/11/12 08:17:47;;;;;;;50.33;30.13;;;11.10;80.50;;;;;;4978004;28;93062;-76
2021/11/12 08:20:36;;;;;;;49.95;32.03;;;11.10;79.90;;;;;;4977696;28;93518;-76
2021/11/12 08:34:06;;;;;;;51.55;30.90;;;11.30;80.00;;;;;;4977478;28;92497;-76
2021/11/12 08:37:22;;;;;;;45.75;30.52;;;11.30;79.60;;;;;;4977523;28;97101;-76
2021/11/12 08:42:18;;;;;;;46.50;29.73;;;11.40;78.80;;;;;;4937148;28;92492;-76
2021/11/12 08:49:42;;;;;;;47.20;28.58;;;11.60;77.80;;;;;;4977327;28;92899;-76
2021/11/12 08:52:14;;;;;;;47.08;31.23;;;11.70;77.80;;;;;;4976431;28;93479;-76
2021/11/12 08:54:45;;;;;;;40.95;29.23;;;11.70;77.40;;;;;;4975912;28;92509;-76
2021/11/12 08:57:15;;;;;;;46.42;30.17;;;11.70;77.50;;;;;;4975736;28;95461;-76
2021/11/12 08:59:45;;;;;;;48.67;32.28;;;11.70;77.10;;;;;;4976962;28;95410;-76
2021/11/12 09:02:15;;;;;;;73.13;46.13;;;11.80;77.30;;;;;;4974921;28;108522;-76
2021/11/12 09:04:43;;;;;;;45.70;29.90;;;11.80;77.10;;;;;;4975528;28;92549;-76
2021/11/12 09:07:11;;;;;;;45.72;30.50;;;11.80;77.00;;;;;;4975177;28;95746;-76
2021/11/12 09:09:39;;;;;;;61.67;35.80;;;11.80;77.60;;;;;;4976691;28;92883;-76
2021/11/12 09:12:09;;;;;;;45.42;30.15;;;11.90;76.70;;;;;;4992595;28;95672;-75
2021/11/12 09:14:41;;;;;;;95.85;56.40;;;11.80;76.50;;;;;;4997298;28;91622;-76
2021/11/12 09:17:09;;;;;;;46.92;31.63;;;11.80;77.00;;;;;;4995704;28;92471;-76
2021/11/12 09:19:45;;;;;;;61.25;40.15;;;11.80;76.60;;;;;;4996658;28;93032;-76
2021/11/12 09:22:14;;;;;;;59.58;37.67;;;11.80;77.20;;;;;;4995483;28;94940;-75
2021/11/12 09:24:43;;;;;;;50.33;33.28;;;11.80;76.90;;;;;;4996308;28;96706;-76
2021/11/12 09:27:11;;;;;;;122.40;61.92;;;11.80;76.40;;;;;;4996018;28;93353;-76
2021/11/12 09:29:38;;;;;;;199.15;85.05;;;11.80;76.30;;;;;;4993229;28;92977;-76
2021/11/12 09:32:07;;;;;;;229.40;147.00;;;11.90;75.80;;;;;;4996402;28;92424;-76
2021/11/12 09:34:38;;;;;;;44.22;31.50;;;11.80;75.90;;;;;;4996102;28;92493;-75
2021/11/12 09:37:09;;;;;;;43.05;31.23;;;11.70;75.90;;;;;;4995941;28;93695;-76
2021/11/12 09:39:40;;;;;;;47.25;33.15;;;11.80;77.00;;;;;;4996657;28;93969;-76
2021/11/12 09:42:08;;;;;;;49.08;37.03;;;11.80;75.70;;;;;;4996069;28;92389;-76
2021/11/12 09:44:36;;;;;;;38.75;27.80;;;11.90;76.20;;;;;;4995783;28;92443;-76
2021/11/12 09:47:04;;;;;;;39.53;27.10;;;11.90;75.20;;;;;;4994522;28;95558;-76
2021/11/12 09:49:31;;;;;;;38.30;27.20;;;11.80;75.80;;;;;;4995531;28;95106;-76
2021/11/12 09:51:59;;;;;;;35.08;25.02;;;11.80;76.30;;;;;;4994677;28;92482;-76
2021/11/12 09:54:27;;;;;;;39.22;25.30;;;11.80;75.20;;;;;;4996171;28;92770;-76
2021/11/12 09:56:54;;;;;;;35.10;26.10;;;11.80;75.10;;;;;;4994732;28;93693;-76
2021/11/12 09:59:21;;;;;;;37.67;25.02;;;11.80;75.70;;;;;;4995599;28;92993;-76
2021/11/12 10:01:48;;;;;;;30.40;23.80;;;11.80;76.10;;;;;;4996041;28;92333;-76
2021/11/12 10:04:16;;;;;;;31.70;22.45;;;11.70;76.20;;;;;;4996044;28;91718;-76
2021/11/12 10:06:44;;;;;;;27.98;22.40;;;11.80;75.80;;;;;;4994527;28;94176;-76
2021/11/12 10:09:20;;;;;;;33.97;22.30;;;11.90;75.80;;;;;;4993701;28;111210;-76
2021/11/12 10:11:59;;;;;;;26.50;20.05;;;11.90;75.60;;;;;;4994864;28;95307;-75
2021/11/12 10:14:46;;;;;;;28.58;22.50;;;11.90;75.50;;;;;;4995793;28;92518;-76
2021/11/12 10:17:13;;;;;;;25.50;19.70;;;12.00;74.30;;;;;;4993913;28;95739;-76
2021/11/12 10:19:48;;;;;;;25.95;20.13;;;12.00;73.70;;;;;;4993536;28;110554;-76
2021/11/12 10:22:16;;;;;;;23.05;17.52;;;12.10;73.20;;;;;;4995716;28;92614;-75
2021/11/12 10:24:52;;;;;;;20.00;14.30;;;12.20;73.40;;;;;;4995714;28;92649;-76
2021/11/12 10:27:25;;;;;;;17.85;14.85;;;12.20;71.20;;;;;;4993984;28;94786;-76
2021/11/12 10:30:00;;;;;;;20.77;16.42;;;12.30;71.30;;;;;;4995852;28;92941;-76
2021/11/12 10:32:30;;;;;;;14.50;12.20;;;12.40;71.10;;;;;;4994700;28;92404;-76
2021/11/12 10:35:07;;;;;;;16.10;13.10;;;12.40;70.20;;;;;;5011102;28;92478;-76
2021/11/12 10:37:38;;;;;;;16.88;13.52;;;12.50;69.90;;;;;;4994006;28;95379;-76
2021/11/12 10:40:28;;;;;;;16.73;12.98;;;12.50;70.60;;;;;;4994063;28;96596;-76
2021/11/12 10:42:58;;;;;;;16.13;13.95;;;12.60;69.80;;;;;;4995314;28;92459;-76
2021/11/12 10:45:28;;;;;;;14.25;12.30;;;12.50;69.90;;;;;;4994705;28;92604;-76
2021/11/12 10:48:07;;;;;;;14.13;12.70;;;12.60;69.90;;;;;;4993484;28;94102;-76
2021/11/12 10:50:40;;;;;;;14.88;12.95;;;12.70;69.90;;;;;;4995164;28;92852;-76
2021/11/12 10:53:12;;;;;;;16.75;13.07;;;12.70;68.90;;;;;;5010303;28;92884;-76
2021/11/12 10:55:40;;;;;;;14.32;12.82;;;12.70;69.20;;;;;;4994200;28;91819;-76
2021/11/12 10:58:12;;;;;;;28.02;20.10;;;12.80;68.70;;;;;;4993534;28;111612;-76
2021/11/12 11:00:45;;;;;;;39.50;26.13;;;12.70;68.60;;;;;;5008546;28;92908;-76
2021/11/12 11:03:21;;;;;;;18.40;14.57;;;12.70;68.40;;;;;;4992876;28;95219;-76
2021/11/12 11:05:51;;;;;;;41.47;21.70;;;12.80;68.50;;;;;;4994611;28;92423;-76
2021/11/12 11:08:21;;;;;;;47.65;25.10;;;12.70;67.40;;;;;;4994624;28;93059;-76
2021/11/12 11:10:52;;;;;;;28.90;20.50;;;12.60;68.50;;;;;;4994656;28;93471;-76
2021/11/12 11:13:28;;;;;;;37.30;33.55;;;12.60;68.70;;;;;;4994135;28;92411;-76
2021/11/12 11:16:04;;;;;;;56.58;51.03;;;12.70;68.90;;;;;;4994820;28;92740;-76
2021/11/12 11:18:32;;;;;;;77.18;70.45;;;12.50;68.50;;;;;;4994568;28;94013;-76
2021/11/12 11:23:48;;;;;;;19.67;17.67;;;12.60;68.90;;;;;;4991949;28;92474;-76
2021/11/12 11:26:30;;;;;;;17.77;15.90;;;12.60;69.00;;;;;;4993524;28;93064;-76
2021/11/12 11:28:59;;;;;;;18.73;16.38;;;12.60;68.80;;;;;;4993446;28;95480;-76
2021/11/12 11:31:28;;;;;;;18.45;15.20;;;12.60;69.50;;;;;;4994200;28;95330;-76
2021/11/12 11:33:56;;;;;;;20.45;18.35;;;12.70;69.20;;;;;;4993740;28;92431;-76
2021/11/12 11:36:26;;;;;;;20.05;17.92;;;12.70;69.50;;;;;;4992019;28;100363;-76
2021/11/12 11:38:55;;;;;;;20.17;18.13;;;12.80;69.30;;;;;;4993110;28;94078;-76
2021/11/12 11:41:25;;;;;;;20.17;18.05;;;12.90;68.60;;;;;;4994246;28;92902;-76
2021/11/12 11:43:53;;;;;;;22.05;19.25;;;13.00;67.90;;;;;;4994761;28;92439;-76
2021/11/12 11:46:25;;;;;;;30.38;27.27;;;13.10;67.90;;;;;;4993376;28;91852;-76
2021/11/12 11:48:54;;;;;;;21.73;19.52;;;13.10;66.90;;;;;;4993551;28;93024;-76
2021/11/12 11:51:33;;;;;;;22.85;20.27;;;12.90;67.20;;;;;;4994058;28;92774;-76
2021/11/12 11:54:05;;;;;;;23.42;21.08;;;12.90;68.00;;;;;;4993463;28;94754;-76
2021/11/12 11:56:57;;;;;;;22.23;20.05;;;12.90;68.10;;;;;;4994431;28;92531;-76
2021/11/12 11:59:32;;;;;;;20.63;18.25;;;12.90;67.50;;;;;;4992763;28;94054;-76
2021/11/12 12:02:04;;;;;;;20.30;17.40;;;12.80;68.30;;;;;;4992754;28;94086;-76
2021/11/12 12:04:33;;;;;;;20.27;18.20;;;12.80;67.80;;;;;;4994348;28;92501;-76
2021/11/12 12:07:03;;;;;;;19.73;17.60;;;12.70;68.00;;;;;;4994283;28;93303;-76
2021/11/12 12:09:51;;;;;;;20.15;18.05;;;12.70;68.10;;;;;;4993892;28;93093;-76
2021/11/12 12:12:30;;;;;;;19.58;17.67;;;12.80;68.50;;;;;;4995371;28;100974;-76
2021/11/12 12:15:12;;;;;;;19.17;17.17;;;12.90;68.00;;;;;;4998127;28;92426;-76
2021/11/12 12:17:43;;;;;;;20.80;17.00;;;13.00;67.90;;;;;;4997662;28;93336;-76
2021/11/12 13:26:05;;;;;;;27.42;20.33;;;12.90;66.60;;;;;;4996807;28;92699;-75
2021/11/12 13:28:34;;;;;;;32.47;22.55;;;13.00;66.60;;;;;;4994939;28;96284;-76
2021/11/12 13:31:11;;;;;;;32.58;21.85;;;12.90;66.40;;;;;;4996449;28;92802;-75
2021/11/12 13:33:50;;;;;;;31.85;22.38;;;12.90;66.20;;;;;;4996483;28;92669;-75
2021/11/12 13:36:20;;;;;;;30.73;22.02;;;12.90;66.00;;;;;;4997100;28;91694;-75
2021/11/12 13:38:56;;;;;;;33.08;22.65;;;12.80;66.20;;;;;;5011286;28;93966;-75
2021/11/12 13:41:26;;;;;;;35.67;25.52;;;12.70;65.30;;;;;;4994926;28;94220;-75
2021/11/12 13:44:09;;;;;;;34.97;24.88;;;12.60;65.70;;;;;;4995269;28;94937;-75
2021/11/12 13:47:03;;;;;;;57.97;33.08;;;12.60;65.50;;;;;;4996304;28;92319;-75
2021/11/12 13:49:37;;;;;;;54.95;33.33;;;12.60;65.60;;;;;;4996455;28;92993;-75
2021/11/12 13:52:15;;;;;;;123.32;61.38;;;12.50;66.30;;;;;;4996153;28;92837;-75
2021/11/12 13:54:48;;;;;;;306.17;131.98;;;12.40;66.60;;;;;;4994516;28;92473;-75
2021/11/12 13:57:18;;;;;;;49.53;35.55;;;12.50;66.40;;;;;;4994218;28;92444;-75
2021/11/12 13:59:54;;;;;;;36.60;28.02;;;12.50;66.80;;;;;;4995619;28;94266;-75
2021/11/12 14:02:22;;;;;;;41.08;32.47;;;12.50;66.60;;;;;;4996373;28;92953;-75
2021/11/12 14:04:50;;;;;;;50.20;41.40;;;12.30;67.30;;;;;;4993956;28;102003;-75
2021/11/12 14:07:24;;;;;;;43.33;31.33;;;12.30;67.30;;;;;;4996063;28;92421;-75
2021/11/12 14:10:12;;;;;;;39.58;28.42;;;12.20;66.60;;;;;;4994594;28;95536;-75
2021/11/12 14:12:57;;;;;;;38.25;28.77;;;12.10;66.60;;;;;;4995376;28;95434;-75
2021/11/12 14:15:30;;;;;;;41.05;32.80;;;12.10;65.90;;;;;;4995868;28;92468;-75
2021/11/12 14:21:08;;;;;;;41.10;27.10;;;12.00;66.40;;;;;;4994139;28;94555;-75
2021/11/12 14:24:11;;;;;;;39.58;27.42;;;12.00;66.50;;;;;;4995628;28;92864;-75
2021/11/12 14:38:10;;;;;;;45.20;29.00;;;11.60;66.70;;;;;;4993105;28;95627;-76
2021/11/12 14:45:58;;;;;;;43.10;24.58;;;11.40;68.00;;;;;;4994627;28;93018;-75
2021/11/12 14:48:31;;;;;;;46.25;28.88;;;11.30;68.60;;;;;;4993759;28;92565;-75
2021/11/12 14:51:06;;;;;;;47.00;29.67;;;11.20;68.80;;;;;;4995092;28;93303;-76
2021/11/12 14:53:50;;;;;;;50.38;32.15;;;11.20;68.30;;;;;;4995084;28;93022;-75
2021/11/12 14:56:27;;;;;;;55.40;36.10;;;11.20;68.20;;;;;;4994360;28;92772;-75
2021/11/12 14:59:02;;;;;;;49.53;36.35;;;11.10;68.70;;;;;;4993623;28;93146;-70
2021/11/12 15:01:33;;;;;;;50.95;33.88;;;10.90;69.40;;;;;;4995086;28;92511;-70
2021/11/12 15:04:00;;;;;;;52.30;30.42;;;10.90;69.60;;;;;;4992057;28;96667;-70
2021/11/12 15:06:29;;;;;;;47.55;28.10;;;10.70;69.80;;;;;;4993355;28;98256;-70
2021/11/12 15:09:02;;;;;;;48.65;29.35;;;10.60;69.70;;;;;;4994326;28;101376;-70
2021/11/12 15:11:31;;;;;;;63.70;36.23;;;10.50;70.30;;;;;;4995246;28;92474;-70
2021/11/12 15:14:08;;;;;;;54.40;32.78;;;10.50;70.10;;;;;;4994125;28;93196;-70
2021/11/12 15:16:40;;;;;;;56.10;32.38;;;10.50;70.60;;;;;;4994861;28;92950;-70
2021/11/12 15:19:12;;;;;;;59.95;34.33;;;10.40;70.60;;;;;;4993483;28;92554;-70
2021/11/12 15:27:07;;;;;;;55.25;32.47;;;10.20;71.10;;;;;;4994719;28;92942;-70
2021/11/12 15:32:25;;;;;;;53.63;29.67;;;10.20;71.60;;;;;;4993219;28;92543;-70
2021/11/12 15:35:13;;;;;;;55.70;34.03;;;10.20;71.50;;;;;;4994489;28;93097;-70
2021/11/12 15:37:51;;;;;;;51.55;29.63;;;10.20;71.90;;;;;;4994780;28;92794;-70
2021/11/12 15:40:32;;;;;;;61.50;34.47;;;10.10;71.40;;;;;;4994787;28;92459;-70
2021/11/12 15:48:12;;;;;;;56.33;31.45;;;10.00;72.70;;;;;;4996527;28;92621;-70
2021/11/12 16:11:29;;;;;;;57.03;33.65;;;9.70;73.70;;;;;;4997619;28;92471;-70
2021/11/12 16:14:13;;;;;;;58.28;34.30;;;9.70;73.90;;;;;;4996140;28;91813;-70
2021/11/12 16:27:32;;;;;;;57.20;32.35;;;9.60;74.00;;;;;;4997416;28;93067;-70
2021/11/12 16:30:04;;;;;;;53.10;31.40;;;9.50;73.80;;;;;;4997009;28;92342;-70
2021/11/12 16:32:47;;;;;;;50.90;30.65;;;9.50;74.00;;;;;;4997305;28;92514;-70
2021/11/12 16:35:19;;;;;;;55.08;32.60;;;9.40;74.20;;;;;;4997134;28;92467;-70
2021/11/12 16:37:48;;;;;;;48.58;30.30;;;9.40;74.50;;;;;;4997252;28;92479;-69
2021/11/12 16:53:21;;;;;;;47.53;28.33;;;9.30;75.40;;;;;;4996791;28;92877;-75
2021/11/12 16:56:11;;;;;;;55.17;33.22;;;9.30;75.60;;;;;;4981052;28;93282;-75
2021/11/12 17:07:07;;;;;;;87.25;46.08;;;9.30;75.20;;;;;;4996404;28;91762;-75
2021/11/12 17:47:24;;;;;;;43.63;28.17;;;9.30;76.40;;;;;;4995183;28;92464;-75
2021/11/12 18:06:52;;;;;;;42.72;26.83;;;9.40;76.30;;;;;;4975823;28;96630;-75
2021/11/12 21:47:23;;;;;;;24.23;17.92;;;9.50;82.20;;;;;;4987208;28;92428;-76
2021/11/12 21:49:50;;;;;;;26.85;19.63;;;9.50;81.90;;;;;;4986010;28;102114;-74
2021/11/12 21:52:17;;;;;;;23.50;17.58;;;9.50;82.10;;;;;;4985656;28;93077;-74
2021/11/12 21:54:44;;;;;;;26.80;18.83;;;9.60;81.80;;;;;;4983993;28;93355;-73
2021/11/12 21:57:11;;;;;;;23.73;18.02;;;9.60;81.90;;;;;;4983139;28;94927;-73
2021/11/12 21:59:38;;;;;;;22.38;17.02;;;9.60;81.80;;;;;;4981432;28;92490;-73
2021/11/12 22:02:06;;;;;;;24.40;17.75;;;9.70;81.40;;;;;;4984341;28;93097;-73
2021/11/12 22:04:33;;;;;;;23.17;16.20;;;9.70;81.60;;;;;;4979845;28;92940;-76
2021/11/12 22:07:03;;;;;;;24.98;16.73;;;9.70;81.10;;;;;;4987075;28;92562;-74
2021/11/12 22:09:33;;;;;;;24.65;17.38;;;9.70;81.50;;;;;;4984192;28;92847;-74
2021/11/12 22:12:02;;;;;;;28.27;17.13;;;9.80;81.30;;;;;;4988390;28;93045;-73
2021/11/12 22:14:30;;;;;;;26.63;17.50;;;9.70;80.70;;;;;;4987002;28;93930;-73
2021/11/12 22:16:57;;;;;;;23.52;17.33;;;9.70;81.20;;;;;;4981505;28;92778;-73
2021/11/12 22:19:24;;;;;;;23.10;17.30;;;9.70;81.10;;;;;;4985093;28;92513;-74
2021/11/12 22:21:52;;;;;;;26.27;17.90;;;9.70;81.10;;;;;;4968619;28;95410;-73
2021/11/12 22:24:20;;;;;;;22.23;16.75;;;9.70;80.60;;;;;;4981345;28;96653;-74
2021/11/12 22:26:50;;;;;;;21.85;17.33;;;9.70;80.90;;;;;;4986753;28;96434;-74
2021/11/12 22:29:17;;;;;;;22.77;16.33;;;9.70;80.80;;;;;;4987285;28;92449;-74
2021/11/12 22:31:44;;;;;;;23.33;16.70;;;9.70;80.50;;;;;;4985446;28;93160;-74
2021/11/12 22:34:24;;;;;;;20.83;15.73;;;9.70;80.80;;;;;;4984408;28;92913;-74
2021/11/12 22:36:51;;;;;;;20.88;15.65;;;9.80;81.20;;;;;;4979393;28;92461;-74
2021/11/12 22:39:19;;;;;;;20.70;16.05;;;9.80;80.80;;;;;;4986315;28;91899;-74
2021/11/12 22:41:46;;;;;;;20.95;15.07;;;9.80;80.60;;;;;;4986893;28;92962;-74
2021/11/12 22:44:14;;;;;;;20.52;14.98;;;9.80;80.90;;;;;;4986263;28;92993;-73
2021/11/12 22:46:43;;;;;;;24.33;17.08;;;9.90;80.70;;;;;;4967416;28;94900;-74
2021/11/12 22:49:10;;;;;;;23.63;17.10;;;9.90;80.50;;;;;;4985146;28;92483;-75
2021/11/12 22:51:38;;;;;;;24.20;17.70;;;9.90;80.20;;;;;;4978480;28;113396;-74
2021/11/12 22:54:06;;;;;;;25.27;16.75;;;10.00;80.10;;;;;;4967269;28;92924;-74
2021/11/12 22:56:34;;;;;;;22.85;16.48;;;9.90;80.30;;;;;;4982355;28;92606;-74
2021/11/12 22:59:01;;;;;;;22.30;17.17;;;10.00;80.10;;;;;;4985510;28;92457;-74
2021/11/12 23:01:31;;;;;;;22.42;17.65;;;10.00;79.80;;;;;;4975214;28;93143;-76
2021/11/12 23:04:00;;;;;;;22.65;16.23;;;10.00;79.80;;;;;;4975577;28;92929;-74
2021/11/12 23:06:27;;;;;;;21.88;15.13;;;10.10;79.60;;;;;;4991562;28;92385;-74